Time;durP1;ratioP1;P1;durP2;ratioP2;P2;SDS_P1;SDS_P2;PMS_P1;PMS_P2;Temp;Humidity;BMP_temperature;BMP_pressure;BME280_temperature;BME280_humidity;BME280_pressure;Samples;Min_cycle;Max_cycle;Signal;HPM_P1;HPM_P2
2022/09/14 00:01:49;;;;;;;5.13;2.85;;;;;;;21.40;59.58;98152.75;5193697;28;20732;-83
2022/09/14 00:04:40;;;;;;;6.85;2.90;;;;;;;21.33;60.06;98125.88;5199541;28;20042;-84
2022/09/14 00:07:31;;;;;;;7.13;2.72;;;;;;;21.40;59.98;98152.75;5201019;28;20233;-81
2022/09/14 00:10:22;;;;;;;3.90;2.60;;;;;;;21.26;60.31;98133.28;5200437;28;20096;-83
2022/09/14 00:13:14;;;;;;;7.32;3.00;;;;;;;21.30;61.45;98156.00;5179776;28;20122;-83
2022/09/14 00:16:12;;;;;;;4.22;2.45;;;;;;;21.22;61.50;98145.56;5189942;28;20056;-80
2022/09/14 00:19:06;;;;;;;4.53;2.60;;;;;;;21.30;60.72;98147.91;5211938;28;20190;-82
2022/09/14 00:21:58;;;;;;;4.63;2.95;;;;;;;21.39;60.22;98156.53;5207179;28;20123;-83
2022/09/14 00:24:48;;;;;;;10.02;2.85;;;;;;;21.20;60.46;98128.81;5194579;28;20136;-83
2022/09/14 00:27:38;;;;;;;5.07;2.65;;;;;;;21.21;60.83;98133.13;5192623;28;20079;-82
2022/09/14 00:30:29;;;;;;;4.38;2.58;;;;;;;21.34;61.37;98150.97;5195477;28;20056;-82
2022/09/14 00:33:19;;;;;;;4.88;2.38;;;;;;;21.28;60.23;98136.53;5200852;28;20052;-84
2022/09/14 00:36:13;;;;;;;4.93;2.40;;;;;;;21.39;61.22;98139.50;5190129;28;20514;-83
2022/09/14 00:39:03;;;;;;;5.15;2.58;;;;;;;21.25;61.37;98114.63;5193909;28;20433;-83
2022/09/14 00:41:54;;;;;;;9.48;2.95;;;;;;;21.32;62.42;98124.25;5197121;28;20087;-83
2022/09/14 00:44:44;;;;;;;5.35;2.90;;;;;;;21.24;62.82;98121.06;5213368;28;20050;-83
2022/09/14 00:47:34;;;;;;;3.95;2.60;;;;;;;21.07;62.88;98119.06;5197035;28;20056;-82
2022/09/14 00:50:24;;;;;;;4.88;3.08;;;;;;;21.10;61.01;98102.44;5180604;28;20072;-84
2022/09/14 00:53:15;;;;;;;5.05;2.60;;;;;;;21.25;61.36;98110.03;5183931;28;20049;-84
2022/09/14 00:56:06;;;;;;;5.43;2.45;;;;;;;21.14;62.02;98086.59;5208893;28;20048;-83
2022/09/14 00:58:58;;;;;;;6.35;2.60;;;;;;;21.37;61.20;98099.31;5202703;28;20053;-82
2022/09/14 01:01:49;;;;;;;3.15;2.35;;;;;;;21.18;62.09;98095.03;5207797;28;20054;-81
2022/09/14 01:04:41;;;;;;;3.47;2.30;;;;;;;21.28;61.36;98103.38;5199259;28;20547;-82
2022/09/14 01:07:47;;;;;;;6.55;2.95;;;;;;;21.29;61.28;98088.81;5194693;28;20049;-82
2022/09/14 01:11:03;;;;;;;10.13;2.90;;;;;;;21.43;61.36;98095.66;5202307;28;20056;-82
2022/09/14 01:14:35;;;;;;;5.85;3.22;;;;;;;21.42;61.79;98079.69;5195860;28;20080;-82
2022/09/14 01:17:52;;;;;;;5.38;2.58;;;;;;;21.41;61.75;98070.78;5160575;28;20057;-81
2022/09/14 01:20:48;;;;;;;5.65;2.80;;;;;;;21.16;61.48;98036.00;5196113;28;20133;-83
2022/09/14 01:24:02;;;;;;;5.97;2.20;;;;;;;21.21;62.71;98060.34;5210398;28;20423;-82
2022/09/14 01:27:14;;;;;;;4.18;2.53;;;;;;;21.34;61.89;98061.97;5175269;28;20052;-82
2022/09/14 01:30:13;;;;;;;3.40;2.60;;;;;;;21.40;61.26;98061.06;5194187;28;20542;-83
2022/09/14 01:33:13;;;;;;;3.65;2.38;;;;;;;21.35;61.64;98079.81;5198546;28;20091;-83
2022/09/14 01:36:07;;;;;;;6.70;2.53;;;;;;;21.28;61.42;98095.28;5179061;28;20145;-82
2022/09/14 01:38:58;;;;;;;3.75;2.50;;;;;;;21.19;61.80;98119.09;5195653;28;20167;-84
2022/09/14 01:41:51;;;;;;;8.85;3.08;;;;;;;21.41;61.13;98173.28;5182143;28;20057;-83
2022/09/14 01:44:46;;;;;;;4.75;3.00;;;;;;;21.56;59.99;98165.56;5203031;28;20250;-83
2022/09/14 01:47:45;;;;;;;5.50;2.90;;;;;;;21.64;60.60;98187.81;5196152;28;20124;-83
2022/09/14 01:50:42;;;;;;;6.57;2.90;;;;;;;21.05;61.28;98098.78;5204570;28;20062;-83
2022/09/14 01:53:41;;;;;;;25.02;5.78;;;;;;;20.96;65.32;98110.94;5205086;28;20056;-84
2022/09/14 01:56:37;;;;;;;13.85;4.82;;;;;;;21.26;65.68;98130.56;5183475;28;20064;-85
2022/09/14 01:59:36;;;;;;;35.30;6.35;;;;;;;21.18;66.54;98163.25;5214840;28;20104;-86
2022/09/14 02:02:43;;;;;;;13.70;4.18;;;;;;;20.86;67.38;98173.50;5203287;28;20081;-83
2022/09/14 02:05:56;;;;;;;10.48;3.70;;;;;;;20.65;68.71;98178.34;5209441;28;20191;-84
2022/09/14 02:08:48;;;;;;;13.70;4.00;;;;;;;20.64;69.12;98192.88;5184143;28;20101;-86
2022/09/14 02:11:39;;;;;;;8.68;3.65;;;;;;;20.14;69.14;98131.16;5195757;28;20068;-83
2022/09/14 02:14:30;;;;;;;13.20;3.92;;;;;;;20.55;69.34;98191.53;5202871;28;20049;-85
2022/09/14 02:17:21;;;;;;;11.60;4.15;;;;;;;20.50;69.10;98183.31;5192476;28;20125;-86
2022/09/14 02:20:19;;;;;;;8.45;3.60;;;;;;;20.53;69.10;98177.50;5185578;28;20057;-87
2022/09/14 02:23:09;;;;;;;11.07;3.97;;;;;;;20.56;69.30;98173.50;5184947;28;20541;-86
2022/09/14 02:26:00;;;;;;;8.98;3.90;;;;;;;20.47;68.38;98181.06;5193214;28;20514;-86
2022/09/14 02:28:54;;;;;;;8.68;4.40;;;;;;;20.54;69.07;98165.66;5205751;28;20053;-86
2022/09/14 02:32:26;;;;;;;11.73;4.57;;;;;;;20.51;68.58;98174.19;5205719;28;20056;-84
2022/09/14 02:35:30;;;;;;;6.70;3.80;;;;;;;20.41;68.92;98172.00;5197131;28;20614;-86
2022/09/14 02:38:36;;;;;;;9.55;4.15;;;;;;;20.38;68.73;98164.38;5206704;28;20059;-84
2022/09/14 02:41:42;;;;;;;9.35;4.60;;;;;;;20.41;69.00;98180.09;5186329;22;20076;-73
2022/09/14 02:44:35;;;;;;;18.52;5.72;;;;;;;20.52;69.42;98170.44;5165423;28;20559;-73
2022/09/14 02:47:42;;;;;;;8.02;4.40;;;;;;;20.35;69.32;98174.78;5168683;28;20148;-73
2022/09/14 02:50:54;;;;;;;9.57;4.68;;;;;;;20.44;70.52;98176.13;5167430;28;20093;-73
2022/09/14 02:54:23;;;;;;;9.52;5.07;;;;;;;20.45;70.74;98158.09;5169150;28;20065;-73
2022/09/14 02:57:13;;;;;;;7.88;4.85;;;;;;;20.29;70.46;98156.84;5163753;28;20069;-73
2022/09/14 03:00:03;;;;;;;12.07;5.72;;;;;;;20.32;70.61;98149.13;5167908;28;20125;-73
2022/09/14 03:02:53;;;;;;;7.20;4.45;;;;;;;20.23;70.71;98142.44;5168706;28;20669;-73
2022/09/14 03:05:44;;;;;;;8.10;5.07;;;;;;;20.30;70.88;98145.88;5166178;28;20061;-73
2022/09/14 03:08:34;;;;;;;8.30;4.80;;;;;;;20.30;71.08;98151.25;5167386;28;20188;-73
2022/09/14 03:11:24;;;;;;;8.18;5.05;;;;;;;20.39;71.03;98131.03;5164071;28;20048;-73
2022/09/14 03:14:14;;;;;;;8.13;4.90;;;;;;;20.28;70.78;98128.28;5168658;28;20068;-73
2022/09/14 03:17:05;;;;;;;9.85;4.85;;;;;;;20.36;70.60;98128.81;5174989;28;20179;-73
2022/09/14 03:19:55;;;;;;;9.25;4.50;;;;;;;20.24;70.51;98122.56;5159370;28;20424;-73
2022/09/14 03:22:46;;;;;;;9.73;4.90;;;;;;;20.21;71.24;98116.81;5165743;28;20416;-73
2022/09/14 03:25:42;;;;;;;16.77;5.78;;;;;;;20.11;70.81;98106.56;5167623;28;20045;-73
2022/09/14 03:28:32;;;;;;;11.07;5.65;;;;;;;20.20;71.01;98113.28;5167253;28;20121;-73
2022/09/14 03:31:22;;;;;;;10.57;5.18;;;;;;;20.31;70.22;98109.81;5165751;28;20130;-73
2022/09/14 03:34:13;;;;;;;14.63;5.35;;;;;;;20.25;70.59;98116.09;5166770;28;20065;-73
2022/09/14 03:37:03;;;;;;;10.20;4.88;;;;;;;20.16;71.27;98121.00;5161322;28;20511;-73
2022/09/14 03:39:53;;;;;;;7.65;4.68;;;;;;;20.44;70.17;98111.50;5174030;28;20062;-73
2022/09/14 03:42:45;;;;;;;8.75;4.93;;;;;;;20.28;70.35;98090.63;5165139;28;20528;-73
2022/09/14 03:45:35;;;;;;;10.15;4.80;;;;;;;20.34;69.98;98100.47;5163462;28;20046;-73
2022/09/14 03:48:25;;;;;;;7.28;4.78;;;;;;;20.10;71.28;98102.25;5165068;28;20428;-73
2022/09/14 03:51:15;;;;;;;7.80;4.80;;;;;;;20.19;71.05;98098.16;5165857;28;20104;-73
2022/09/14 03:54:06;;;;;;;7.50;4.70;;;;;;;20.31;70.55;98096.34;5165243;28;20133;-73
2022/09/14 03:56:56;;;;;;;6.82;4.88;;;;;;;20.27;70.64;98102.44;5160142;28;20062;-73
2022/09/14 03:59:46;;;;;;;9.88;4.97;;;;;;;20.25;71.03;98102.66;5165801;28;20053;-73
2022/09/14 04:02:36;;;;;;;11.60;5.22;;;;;;;20.39;70.52;98085.25;5170422;28;20050;-73
2022/09/14 04:05:26;;;;;;;11.30;5.72;;;;;;;20.05;72.05;98067.94;5159225;28;20568;-73
2022/09/14 04:08:16;;;;;;;8.52;5.20;;;;;;;20.29;71.51;98070.72;5157019;28;20042;-73
2022/09/14 04:11:15;;;;;;;7.93;4.82;;;;;;;20.09;72.58;98050.28;5160128;28;20050;-73
2022/09/14 04:14:06;;;;;;;10.38;5.28;;;;;;;20.30;71.35;98048.16;5168692;28;20089;-73
2022/09/14 04:16:56;;;;;;;11.57;5.78;;;;;;;20.31;71.49;98047.91;5161920;28;20057;-73
2022/09/14 04:19:46;;;;;;;10.07;5.88;;;;;;;20.23;72.26;98055.47;5166272;28;20179;-73
2022/09/14 04:22:36;;;;;;;13.32;6.88;;;;;;;19.94;73.29;98053.38;5164231;28;20874;-73
2022/09/14 04:25:26;;;;;;;9.45;6.10;;;;;;;20.04;73.30;98060.91;5165403;28;20051;-73
2022/09/14 04:28:17;;;;;;;10.15;5.82;;;;;;;20.01;72.38;98039.84;5162418;28;20090;-73
2022/09/14 04:31:11;;;;;;;11.43;6.18;;;;;;;20.22;72.70;98053.84;5163664;28;20133;-73
2022/09/14 04:34:01;;;;;;;11.95;6.05;;;;;;;20.31;72.04;98060.53;5165522;28;20166;-73
2022/09/14 04:36:51;;;;;;;8.18;5.70;;;;;;;20.30;71.78;98050.84;5166577;28;20059;-73
2022/09/14 04:39:41;;;;;;;9.25;5.20;;;;;;;20.35;71.83;98045.56;5159341;28;20057;-73
2022/09/14 04:42:32;;;;;;;10.85;6.10;;;;;;;20.37;71.54;98032.72;5162819;28;20057;-72
2022/09/14 04:45:22;;;;;;;11.05;5.63;;;;;;;20.27;71.74;98025.19;5162829;28;20068;-73
2022/09/14 04:48:12;;;;;;;8.43;5.10;;;;;;;20.23;73.12;98033.94;5163628;28;20655;-73
2022/09/14 04:51:09;;;;;;;10.15;5.47;;;;;;;20.27;72.71;98046.72;5165670;28;20546;-76
2022/09/14 04:54:02;;;;;;;11.43;5.18;;;;;;;20.28;72.54;98064.50;5163661;28;20096;-72
2022/09/14 04:56:52;;;;;;;8.30;5.78;;;;;;;20.50;72.10;98083.66;5160247;28;20061;-77
2022/09/14 04:59:42;;;;;;;14.15;6.90;;;;;;;20.05;74.07;98110.97;5165498;28;20057;-73
2022/09/14 05:02:32;;;;;;;13.02;8.35;;;;;;;19.91;73.79;98118.41;5162416;28;20057;-72
2022/09/14 05:05:22;;;;;;;15.27;10.20;;;;;;;19.33;77.36;98120.63;5164264;28;20184;-72
2022/09/14 05:08:12;;;;;;;15.40;9.38;;;;;;;19.79;74.08;98100.53;5163346;28;20058;-75
2022/09/14 05:11:07;;;;;;;12.15;8.68;;;;;;;19.70;74.76;98133.13;5166460;28;20061;-74
2022/09/14 05:13:59;;;;;;;14.40;9.48;;;;;;;19.62;75.48;98124.50;5166468;28;20057;-71
2022/09/14 05:16:48;;;;;;;11.68;8.60;;;;;;;19.94;73.63;98111.75;5164977;28;20050;-72
2022/09/14 05:19:38;;;;;;;11.32;8.18;;;;;;;20.25;72.26;98101.84;5167772;28;20181;-72
2022/09/14 05:22:28;;;;;;;12.95;8.68;;;;;;;20.18;72.71;98097.34;5171238;28;20440;-73
2022/09/14 05:25:18;;;;;;;12.18;8.90;;;;;;;20.14;72.70;98093.47;5160638;28;20568;-75
2022/09/14 05:28:08;;;;;;;12.60;9.07;;;;;;;20.30;72.48;98085.84;5161360;28;20064;-74
2022/09/14 05:30:58;;;;;;;13.48;9.15;;;;;;;20.23;72.64;98085.06;5162709;28;20073;-73
2022/09/14 05:33:49;;;;;;;10.30;8.38;;;;;;;20.27;71.92;98084.41;5160681;28;20066;-73
2022/09/14 05:36:40;;;;;;;11.05;8.63;;;;;;;20.46;72.09;98090.53;5162683;28;20274;-76
2022/09/14 05:39:30;;;;;;;13.63;9.38;;;;;;;20.70;70.65;98093.34;5181394;28;20053;-74
2022/09/14 05:42:20;;;;;;;11.55;9.25;;;;;;;20.49;71.64;98082.00;5163434;28;20723;-73
2022/09/14 05:45:09;;;;;;;15.73;9.98;;;;;;;20.51;72.02;98071.88;5161850;28;20429;-75
2022/09/14 05:48:03;;;;;;;15.50;10.07;;;;;;;20.55;72.27;98083.81;5159934;28;20137;-73
2022/09/14 05:50:58;;;;;;;;;;;;;;;20.74;71.26;98076.50;5165395;28;20054;-73
2022/09/14 05:53:52;;;;;;;14.60;10.10;;;;;;;20.78;71.08;98085.75;5169389;28;20003;-74
2022/09/14 05:56:42;;;;;;;;;;;;;;;20.70;72.26;98088.78;5162610;28;20060;-72
2022/09/14 05:59:32;;;;;;;14.70;9.73;;;;;;;20.93;71.08;98081.81;5161579;28;19953;-71
2022/09/14 06:02:22;;;;;;;40.13;23.40;;;;;;;20.91;71.32;98078.50;5132976;28;20548;-71
2022/09/14 06:05:12;;;;;;;22.35;11.90;;;;;;;20.72;71.74;98064.31;5147119;28;20060;-71
2022/09/14 06:08:04;;;;;;;17.90;11.52;;;;;;;20.82;71.88;98059.16;5144887;28;20129;-73
2022/09/14 06:10:54;;;;;;;16.80;10.98;;;;;;;20.73;72.08;98063.22;5144438;28;20062;-72
2022/09/14 06:13:48;;;;;;;17.92;11.60;;;;;;;20.76;72.43;98065.47;5147105;28;21536;-73
2022/09/14 06:16:38;;;;;;;19.23;11.00;;;;;;;20.71;72.69;98074.25;5144866;28;20058;-72
2022/09/14 06:19:29;;;;;;;15.10;10.70;;;;;;;20.94;71.86;98069.97;5147904;28;20046;-73
2022/09/14 06:22:19;;;;;;;17.45;10.75;;;;;;;21.09;71.86;98062.22;5143256;28;20057;-72
2022/09/14 06:25:10;;;;;;;14.00;10.95;;;;;;;20.90;71.97;98060.72;5137974;28;20109;-72
2022/09/14 06:28:00;;;;;;;19.23;10.35;;;;;;;21.07;71.32;98067.84;5137104;28;20100;-72
2022/09/14 06:30:50;;;;;;;19.80;10.55;;;;;;;21.20;71.65;98071.38;5135436;28;20128;-72
2022/09/14 06:33:44;;;;;;;17.33;11.23;;;;;;;21.30;70.88;98063.53;5136394;28;20145;-71
2022/09/14 06:36:35;;;;;;;14.93;11.45;;;;;;;21.25;71.74;98061.50;5137761;28;20065;-72
2022/09/14 06:39:25;;;;;;;22.45;11.98;;;;;;;21.51;70.11;98068.31;5139052;28;20194;-73
2022/09/14 06:42:15;;;;;;;18.80;11.45;;;;;;;21.17;71.71;98055.69;5161252;28;20082;-71
2022/09/14 06:45:06;;;;;;;14.38;10.82;;;;;;;21.49;70.89;98066.91;5154618;28;20061;-72
2022/09/14 06:47:57;;;;;;;16.13;10.02;;;;;;;21.48;71.51;98068.78;5145758;28;20539;-72
2022/09/14 06:50:46;;;;;;;19.02;11.10;;;;;;;21.40;72.23;98058.38;5143225;28;20057;-72
2022/09/14 06:53:36;;;;;;;19.58;9.52;;;;;;;21.59;72.45;98064.47;5139325;28;20050;-71
2022/09/14 06:56:29;;;;;;;12.93;9.20;;;;;;;21.63;71.70;98064.81;5140981;28;20070;-72
2022/09/14 06:59:19;;;;;;;10.90;8.40;;;;;;;21.63;71.49;98054.00;5137950;28;20051;-72
2022/09/14 07:02:12;;;;;;;16.17;8.82;;;;;;;21.76;71.40;98062.66;5139091;28;20421;-72
2022/09/14 07:05:02;;;;;;;11.65;8.80;;;;;;;21.95;70.96;98059.75;5140438;28;20101;-74
2022/09/14 07:07:53;;;;;;;11.82;8.48;;;;;;;22.00;70.33;98062.59;5147402;28;20065;-73
2022/09/14 07:10:43;;;;;;;16.75;9.43;;;;;;;21.97;70.82;98055.78;5146279;28;20181;-73
2022/09/14 07:13:34;;;;;;;15.27;8.40;;;;;;;22.46;70.03;98058.88;5145265;28;20588;-73
2022/09/14 07:16:25;;;;;;;16.17;8.48;;;;;;;23.49;67.60;98055.09;5144219;28;20492;-73
2022/09/14 07:19:15;;;;;;;17.40;8.82;;;;;;;23.90;64.68;98059.16;5140164;28;20054;-73
2022/09/14 07:22:05;;;;;;;11.60;7.43;;;;;;;23.71;66.34;98069.50;5140099;28;20054;-74
2022/09/14 07:24:55;;;;;;;12.52;7.68;;;;;;;23.37;65.43;98077.66;5135599;28;20057;-71
2022/09/14 07:27:45;;;;;;;12.43;8.38;;;;;;;23.45;67.32;98087.25;5137334;28;21727;-72
2022/09/14 07:30:36;;;;;;;15.25;7.75;;;;;;;23.40;67.53;98084.44;5154519;28;20136;-75
2022/09/14 07:33:28;;;;;;;15.43;8.43;;;;;;;23.36;68.30;98086.03;5145686;28;20054;-74
2022/09/14 07:36:18;;;;;;;10.48;7.50;;;;;;;23.32;68.55;98076.78;5144847;28;20054;-74
2022/09/14 07:39:11;;;;;;;13.07;7.22;;;;;;;23.13;67.61;98084.31;5144512;28;20069;-71
2022/09/14 07:42:01;;;;;;;10.30;7.38;;;;;;;23.30;69.30;98092.41;5145241;28;20058;-72
2022/09/14 07:44:51;;;;;;;9.43;7.05;;;;;;;23.45;68.91;98095.34;5154862;28;20085;-72
2022/09/14 07:47:41;;;;;;;14.27;7.97;;;;;;;23.51;67.90;98085.41;5137553;28;20109;-72
2022/09/14 07:50:31;;;;;;;14.05;7.60;;;;;;;23.36;67.24;98092.25;5138707;28;20204;-72
2022/09/14 07:53:21;;;;;;;13.23;7.07;;;;;;;23.39;68.05;98097.16;5146206;28;20539;-73
2022/09/14 07:56:13;;;;;;;13.48;7.60;;;;;;;23.28;68.05;98067.50;5143118;28;20065;-74
2022/09/14 07:59:04;;;;;;;11.98;7.95;;;;;;;23.41;68.76;98086.91;5164983;28;20086;-74
2022/09/14 08:02:14;;;;;;;11.65;7.20;;;;;;;23.69;67.84;98098.69;5149524;28;20583;-75
2022/09/14 08:05:05;;;;;;;15.15;7.78;;;;;;;23.81;67.62;98093.97;5152809;28;20077;-73
2022/09/14 08:07:55;;;;;;;13.30;7.75;;;;;;;24.57;64.71;98104.06;5151753;28;20050;-74
2022/09/14 08:10:45;;;;;;;11.68;7.03;;;;;;;24.01;67.00;98103.44;5165551;28;20058;-73
2022/09/14 08:13:38;;;;;;;11.13;7.00;;;;;;;23.91;67.75;98096.00;5145979;28;20054;-74
2022/09/14 08:16:30;;;;;;;12.02;7.30;;;;;;;24.15;67.33;98129.03;5139892;28;20054;-72
2022/09/14 08:19:19;;;;;;;9.77;7.03;;;;;;;24.04;67.41;98124.56;5141741;28;20129;-72
2022/09/14 08:22:10;;;;;;;9.25;7.00;;;;;;;23.99;67.47;98130.75;5138136;28;20098;-74
2022/09/14 08:25:00;;;;;;;15.07;6.63;;;;;;;23.84;66.76;98141.38;5145227;28;20062;-75
2022/09/14 08:27:49;;;;;;;10.85;6.65;;;;;;;23.25;69.12;98141.84;5150317;28;20148;-74
2022/09/14 08:30:40;;;;;;;9.85;7.20;;;;;;;23.58;68.70;98141.00;5151354;28;20061;-74
2022/09/14 08:33:36;;;;;;;13.98;7.03;;;;;;;23.65;68.58;98147.06;5151397;28;20131;-73
2022/09/14 08:36:32;;;;;;;9.57;7.15;;;;;;;23.74;67.35;98147.50;5156035;28;20053;-75
2022/09/14 08:39:22;;;;;;;12.93;7.20;;;;;;;23.87;66.93;98157.94;5153799;28;20048;-74
2022/09/14 08:42:16;;;;;;;14.27;7.63;;;;;;;23.48;69.43;98157.09;5145317;28;20420;-74
2022/09/14 08:45:10;;;;;;;11.30;7.70;;;;;;;23.56;68.77;98132.31;5143363;28;20065;-73
2022/09/14 08:48:01;;;;;;;14.00;7.87;;;;;;;23.80;67.55;98141.03;5141447;28;20058;-73
2022/09/14 08:50:52;;;;;;;16.15;7.88;;;;;;;23.65;68.65;98159.78;5138027;28;20313;-74
2022/09/14 08:53:43;;;;;;;8.63;6.78;;;;;;;23.13;70.11;98170.84;5139829;28;20102;-72
2022/09/14 08:56:38;;;;;;;12.88;7.57;;;;;;;23.65;67.63;98176.81;5139219;28;20050;-73
2022/09/14 09:00:02;;;;;;;10.48;7.88;;;;;;;23.79;67.58;98188.13;5140059;28;20065;-74
2022/09/14 09:02:55;;;;;;;12.73;7.55;;;;;;;24.21;67.79;98184.94;5140970;28;20056;-74
2022/09/14 09:05:53;;;;;;;12.70;7.18;;;;;;;24.89;65.03;98173.75;5143388;28;20081;-71
2022/09/14 09:09:11;;;;;;;10.25;6.95;;;;;;;25.62;63.65;98168.69;5145942;28;20066;-72
2022/09/14 09:12:01;;;;;;;13.32;6.90;;;;;;;26.68;62.99;98165.69;5145705;28;20724;-74
2022/09/14 09:14:57;;;;;;;10.40;5.72;;;;;;;26.80;60.05;98159.19;5149433;28;20076;-74
2022/09/14 09:17:53;;;;;;;11.80;5.40;;;;;;;27.69;59.20;98151.59;5155293;28;20065;-74
2022/09/14 09:20:54;;;;;;;9.35;5.15;;;;;;;28.38;56.42;98142.66;5154832;28;20054;-72
2022/09/14 09:23:44;;;;;;;17.80;4.80;;;;;;;27.60;55.93;98130.34;5149858;28;20505;-74
2022/09/14 09:26:34;;;;;;;6.50;4.88;;;;;;;28.62;57.77;98169.28;5146071;28;20058;-72
2022/09/14 09:29:24;;;;;;;9.07;4.22;;;;;;;29.00;56.27;98168.50;5140782;28;20043;-72
2022/09/14 09:32:34;;;;;;;6.78;4.20;;;;;;;28.97;53.78;98158.16;5137957;28;20729;-73
2022/09/14 09:35:56;;;;;;;5.93;3.72;;;;;;;27.92;57.25;98145.56;5146597;28;20049;-73
2022/09/14 09:38:51;;;;;;;12.05;3.83;;;;;;;27.63;56.72;98151.59;5153014;28;20140;-73
2022/09/14 09:41:47;;;;;;;7.53;4.40;;;;;;;27.92;58.72;98136.56;5139684;28;20117;-73
2022/09/14 09:44:59;;;;;;;10.15;4.20;;;;;;;28.32;56.66;98125.50;5145089;28;20057;-73
2022/09/14 09:47:53;;;;;;;5.90;3.20;;;;;;;29.45;55.43;98120.06;5144804;28;20064;-73
2022/09/14 09:50:56;;;;;;;7.25;3.28;;;;;;;29.24;55.57;98114.00;5145460;28;20050;-73
2022/09/14 09:53:52;;;;;;;7.78;3.13;;;;;;;29.66;54.52;98107.03;5142669;28;20053;-72
2022/09/14 09:56:55;;;;;;;5.80;2.80;;;;;;;30.08;54.07;98116.41;5140943;28;20107;-73
2022/09/14 09:59:47;;;;;;;7.05;2.80;;;;;;;30.56;51.69;98110.03;5142023;28;20061;-73
2022/09/14 10:02:37;;;;;;;4.47;2.58;;;;;;;29.65;52.99;98105.44;5137487;28;20132;-73
2022/09/14 10:05:30;;;;;;;6.00;2.20;;;;;;;29.99;51.11;98093.53;5137973;28;20061;-73
2022/09/14 10:08:20;;;;;;;8.23;3.03;;;;;;;29.95;54.04;98082.38;5141465;28;20053;-73
2022/09/14 10:11:35;;;;;;;3.65;2.25;;;;;;;30.80;52.12;98080.72;5142008;28;20073;-73
2022/09/14 10:14:36;;;;;;;4.13;2.00;;;;;;;30.92;47.56;98054.78;5149999;28;20963;-72
2022/09/14 10:17:26;;;;;;;2.80;1.95;;;;;;;28.59;53.33;98058.03;5152603;28;20073;-73
2022/09/14 10:20:22;;;;;;;4.90;2.00;;;;;;;29.27;51.47;98060.72;5149706;28;20061;-72
2022/09/14 10:23:18;;;;;;;3.95;2.10;;;;;;;28.82;54.78;98070.94;5148765;28;20098;-72
2022/09/14 10:26:11;;;;;;;4.85;1.98;;;;;;;27.98;55.00;98062.72;5165936;28;20052;-72
2022/09/14 10:29:34;;;;;;;7.85;2.88;;;;;;;27.61;55.91;98063.09;5151481;28;20685;-72
2022/09/14 10:32:25;;;;;;;8.88;2.10;;;;;;;28.25;54.59;98036.97;5148242;28;20602;-73
2022/09/14 10:35:17;;;;;;;5.45;2.17;;;;;;;28.92;53.03;98043.56;5148229;28;20057;-73
2022/09/14 10:38:26;;;;;;;3.67;2.25;;;;;;;28.39;55.15;98046.16;5146076;28;20142;-72
2022/09/14 10:41:54;;;;;;;3.92;2.03;;;;;;;28.20;54.37;98021.44;5149014;28;20053;-71
2022/09/14 10:45:08;;;;;;;11.02;2.50;;;;;;;27.82;55.21;98029.28;5147261;28;20220;-70
2022/09/14 10:48:06;;;;;;;5.05;1.95;;;;;;;28.20;53.57;98001.53;5146818;28;20058;-71
2022/09/14 10:51:35;;;;;;;3.47;1.85;;;;;;;27.57;55.95;98002.91;5148947;28;20054;-70
2022/09/14 10:54:48;;;;;;;7.10;2.10;;;;;;;27.60;54.71;98007.81;5148897;28;20064;-71
2022/09/14 10:58:01;;;;;;;4.13;1.65;;;;;;;28.16;54.08;98003.22;5148749;28;20050;-71
2022/09/14 11:01:07;;;;;;;2.88;1.52;;;;;;;28.34;54.78;97992.47;5144817;28;20573;-71
2022/09/14 11:04:37;;;;;;;3.30;1.80;;;;;;;28.77;53.36;97981.78;5144191;28;20133;-70
2022/09/14 11:07:53;;;;;;;3.22;1.63;;;;;;;28.23;53.54;97996.34;5127417;28;20428;-70
2022/09/14 11:11:11;;;;;;;6.50;2.00;;;;;;;28.39;53.06;97988.91;5139426;28;20090;-71
2022/09/14 11:14:29;;;;;;;4.55;1.92;;;;;;;28.38;52.29;97981.78;5135317;28;20062;-71
2022/09/14 11:17:42;;;;;;;7.18;2.05;;;;;;;28.10;53.64;97981.44;5137128;28;20681;-70
2022/09/14 11:21:04;;;;;;;9.75;1.90;;;;;;;27.55;52.73;97966.16;5138238;28;20051;-70
2022/09/14 11:23:59;;;;;;;6.07;2.00;;;;;;;27.81;52.46;97958.72;5134418;28;20054;-70
2022/09/14 11:26:59;;;;;;;7.10;1.90;;;;;;;28.99;52.79;97964.91;5152855;28;20091;-70
2022/09/14 11:29:58;;;;;;;2.22;1.85;;;;;;;28.03;52.57;97967.31;5138352;28;20216;-70
2022/09/14 11:32:58;;;;;;;4.88;1.63;;;;;;;28.82;53.15;97945.44;5136309;28;20058;-70
2022/09/14 11:35:59;;;;;;;3.40;1.85;;;;;;;28.84;51.31;97965.06;5137273;28;20058;-70
2022/09/14 11:38:56;;;;;;;5.15;1.75;;;;;;;28.83;49.70;97957.97;5135285;28;20081;-70
2022/09/14 11:42:01;;;;;;;7.43;1.67;;;;;;;27.77;51.96;97947.56;5150238;28;20140;-70
2022/09/14 11:45:04;;;;;;;5.05;1.58;;;;;;;28.05;51.41;97946.06;5146438;28;20507;-70
2022/09/14 11:48:16;;;;;;;5.57;1.85;;;;;;;29.01;51.49;97945.56;5148134;28;20074;-70
2022/09/14 11:51:44;;;;;;;4.75;1.77;;;;;;;28.69;50.39;97932.47;5155940;28;20066;-72
2022/09/14 11:54:38;;;;;;;7.47;2.28;;;;;;;28.72;51.35;97951.00;5168440;28;20057;-69
2022/09/14 11:57:33;;;;;;;4.82;2.10;;;;;;;29.02;49.61;97928.06;5141668;28;20060;-69
2022/09/14 12:00:24;;;;;;;3.20;1.63;;;;;;;29.25;50.19;97942.81;5160953;28;20758;-72
2022/09/14 12:03:20;;;;;;;4.50;1.88;;;;;;;29.44;48.50;97946.41;5145526;28;20073;-71
2022/09/14 12:06:28;;;;;;;3.85;1.50;;;;;;;29.34;49.76;97954.72;5159282;28;20108;-73
2022/09/14 12:09:23;;;;;;;3.15;1.70;;;;;;;28.91;48.49;97962.81;5161517;28;20177;-71
2022/09/14 12:12:31;;;;;;;4.25;1.85;;;;;;;28.54;51.31;97964.25;5159225;28;20058;-72
2022/09/14 12:15:27;;;;;;;6.28;1.60;;;;;;;28.50;49.61;97962.34;5162531;28;21026;-70
2022/09/14 12:18:22;;;;;;;3.28;1.52;;;;;;;28.62;51.64;97962.00;5160866;28;20085;-70
2022/09/14 12:21:21;;;;;;;5.57;2.03;;;;;;;28.82;49.69;97964.53;5154404;28;20055;-70
2022/09/14 12:24:14;;;;;;;5.80;1.80;;;;;;;28.90;51.87;97966.63;5151147;28;20615;-71
2022/09/14 12:27:21;;;;;;;7.20;2.07;;;;;;;28.46;51.36;97951.22;5158180;28;20054;-72
2022/09/14 12:30:33;;;;;;;4.00;1.80;;;;;;;28.47;51.75;97952.03;5154249;28;20061;-70
2022/09/14 12:33:32;;;;;;;4.47;1.60;;;;;;;28.65;49.35;97958.69;5151430;28;20096;-72
2022/09/14 12:36:25;;;;;;;3.42;1.60;;;;;;;28.38;51.05;97961.88;5146075;28;20069;-72
2022/09/14 12:39:25;;;;;;;5.03;1.65;;;;;;;28.05;51.66;97970.56;5144990;28;20046;-71
2022/09/14 12:42:41;;;;;;;3.55;1.70;;;;;;;28.22;51.86;97989.25;5140569;28;20057;-72
2022/09/14 12:45:59;;;;;;;6.40;1.92;;;;;;;28.10;51.67;97977.88;5145973;28;20421;-71
2022/09/14 12:48:57;;;;;;;6.72;2.10;;;;;;;28.03;49.02;97983.66;5150878;28;20045;-72
2022/09/14 12:51:48;;;;;;;8.57;2.17;;;;;;;27.81;50.10;97978.59;5144419;28;20116;-72
2022/09/14 12:54:52;;;;;;;6.13;1.77;;;;;;;27.62;50.92;97983.84;5138641;28;20078;-70
2022/09/14 12:58:17;;;;;;;4.97;1.60;;;;;;;26.85;53.66;97979.69;5139101;28;20129;-70
2022/09/14 13:01:18;;;;;;;5.47;2.45;;;;;;;26.87;55.68;97985.66;5139476;28;20057;-70
2022/09/14 13:04:15;;;;;;;3.22;1.85;;;;;;;26.71;55.57;97984.88;5139367;28;20149;-73
2022/09/14 13:07:13;;;;;;;4.78;2.20;;;;;;;26.34;57.68;97985.91;5139854;28;20168;-73
2022/09/14 13:10:05;;;;;;;4.55;2.17;;;;;;;26.31;58.06;97999.25;5137543;28;20104;-72
2022/09/14 13:12:56;;;;;;;5.43;2.15;;;;;;;25.64;60.27;98015.34;5137099;28;20084;-71
2022/09/14 13:15:56;;;;;;;11.68;2.97;;;;;;;25.05;63.16;98023.66;5142925;28;20144;-71
2022/09/14 13:18:46;;;;;;;5.68;2.15;;;;;;;24.48;64.09;98041.38;5151683;28;20511;-72
2022/09/14 13:21:45;;;;;;;7.32;2.30;;;;;;;23.47;65.58;98063.44;5149354;28;20058;-72
2022/09/14 13:24:41;;;;;;;5.63;2.10;;;;;;;22.70;70.08;98075.78;5146718;28;20058;-72
2022/09/14 13:27:34;;;;;;;8.32;2.55;;;;;;;22.90;69.59;98085.28;5146296;28;20671;-72
2022/09/14 13:30:26;;;;;;;7.55;2.65;;;;;;;22.48;71.90;98091.03;5149002;28;20053;-72
2022/09/14 13:33:17;;;;;;;9.30;2.85;;;;;;;23.34;69.48;98094.38;5145896;28;20065;-71
2022/09/14 13:36:07;;;;;;;8.93;2.90;;;;;;;22.35;71.71;98099.44;5140800;28;20069;-72
2022/09/14 13:39:00;;;;;;;6.63;2.72;;;;;;;22.70;71.11;98097.38;5138159;28;20427;-71
2022/09/14 13:41:51;;;;;;;9.35;2.72;;;;;;;22.84;70.93;98087.06;5136668;28;20065;-71
2022/09/14 13:44:47;;;;;;;10.38;2.60;;;;;;;22.52;71.67;98084.13;5137127;28;20536;-71